createdAt,value
2022-10-18T00:02:13.564Z,15.20
2022-10-18T00:04:44.211Z,15.20
2022-10-18T00:07:14.750Z,15.20
2022-10-18T00:09:45.319Z,15.10
2022-10-18T00:12:15.918Z,15.10
2022-10-18T00:14:46.551Z,15.10
2022-10-18T00:17:17.063Z,15.00
2022-10-18T00:19:48.537Z,15.10
2022-10-18T00:22:19.065Z,15.10
2022-10-18T00:24:49.776Z,15.00
2022-10-18T00:27:20.533Z,15.00
2022-10-18T00:29:54.237Z,15.00
2022-10-18T00:32:25.235Z,15.10
2022-10-18T00:34:55.761Z,15.10
2022-10-18T00:37:26.330Z,15.10
2022-10-18T00:39:56.910Z,15.30
2022-10-18T00:42:30.940Z,15.40
2022-10-18T00:45:19.780Z,15.60
2022-10-18T00:47:54.319Z,15.90
2022-10-18T00:50:26.523Z,15.90
2022-10-18T00:53:00.291Z,15.60
2022-10-18T00:55:32.949Z,15.50
2022-10-18T00:58:05.029Z,15.50
2022-10-18T01:00:37.346Z,15.50
2022-10-18T01:03:08.786Z,15.40
2022-10-18T01:05:42.993Z,15.40
2022-10-18T01:08:28.376Z,15.40
2022-10-18T01:11:05.413Z,15.40
2022-10-18T01:13:43.360Z,15.30
2022-10-18T01:16:19.325Z,15.30
2022-10-18T01:18:53.659Z,15.20
2022-10-18T01:21:33.452Z,15.10
2022-10-18T01:24:37.347Z,15.10
2022-10-18T01:27:30.720Z,15.10
2022-10-18T01:30:23.518Z,15.10
2022-10-18T01:32:57.164Z,15.20
2022-10-18T01:35:30.764Z,15.20
2022-10-18T01:38:04.275Z,15.20
2022-10-18T01:40:36.978Z,15.10
2022-10-18T01:43:09.868Z,15.20
2022-10-18T01:45:40.926Z,15.30
2022-10-18T01:48:13.552Z,15.30
2022-10-18T01:50:44.085Z,15.30
2022-10-18T01:53:32.832Z,15.40
2022-10-18T01:56:11.607Z,15.20
2022-10-18T01:58:45.613Z,15.30
2022-10-18T02:01:21.523Z,15.30
2022-10-18T02:03:55.019Z,15.30
2022-10-18T02:06:28.998Z,15.10
2022-10-18T02:09:03.103Z,15.10
2022-10-18T02:11:36.096Z,15.10
2022-10-18T02:14:09.733Z,15.00
2022-10-18T02:16:44.676Z,15.00
2022-10-18T02:19:19.477Z,14.90
2022-10-18T02:21:51.533Z,14.80
2022-10-18T02:24:25.061Z,14.90
2022-10-18T02:26:55.812Z,14.80
2022-10-18T02:29:26.554Z,14.80
2022-10-18T02:32:00.897Z,14.70
2022-10-18T02:34:34.363Z,14.70
2022-10-18T02:37:06.626Z,14.60
2022-10-18T02:39:39.352Z,14.40
2022-10-18T02:42:12.151Z,14.30
2022-10-18T02:44:42.968Z,14.20
2022-10-18T02:47:14.580Z,14.20
2022-10-18T02:49:45.113Z,14.40
2022-10-18T02:52:15.650Z,14.40
2022-10-18T02:54:46.238Z,14.30
2022-10-18T02:57:16.771Z,14.40
2022-10-18T02:59:47.331Z,14.50
2022-10-18T03:02:17.912Z,14.50
2022-10-18T03:04:48.527Z,14.50
2022-10-18T03:07:19.058Z,14.40
2022-10-18T03:09:49.595Z,14.20
2022-10-18T03:12:20.266Z,14.00
2022-10-18T03:14:50.847Z,14.10
2022-10-18T03:17:21.373Z,14.20
2022-10-18T03:19:52.021Z,14.30
2022-10-18T03:22:22.996Z,14.40
2022-10-18T03:24:54.012Z,14.50
2022-10-18T03:27:24.579Z,14.60
2022-10-18T03:29:55.243Z,14.70
2022-10-18T03:32:25.778Z,14.80
2022-10-18T03:34:56.507Z,14.80
2022-10-18T03:37:27.104Z,14.60
2022-10-18T03:39:57.711Z,14.70
2022-10-18T03:42:28.338Z,15.10
2022-10-18T03:44:58.940Z,14.80
2022-10-18T03:47:29.516Z,14.50
2022-10-18T03:50:00.210Z,14.50
2022-10-18T03:52:31.267Z,14.50
2022-10-18T03:55:02.265Z,14.60
2022-10-18T03:57:32.790Z,14.70
2022-10-18T04:00:03.356Z,14.60
2022-10-18T04:02:34.119Z,14.40
2022-10-18T04:05:05.061Z,14.40
2022-10-18T04:10:08.745Z,14.10
2022-10-18T04:12:39.272Z,14.00
2022-10-18T04:15:12.543Z,14.00
2022-10-18T04:17:43.211Z,14.20
2022-10-18T04:20:14.826Z,14.30
2022-10-18T04:22:45.449Z,14.30
2022-10-18T04:25:16.037Z,14.20
2022-10-18T04:27:46.795Z,14.40
2022-10-18T04:30:17.568Z,14.40
2022-10-18T04:32:48.135Z,14.50
2022-10-18T04:35:20.069Z,14.60
2022-10-18T04:37:50.609Z,14.30
2022-10-18T04:40:23.333Z,13.90
2022-10-18T04:42:53.913Z,14.10
2022-10-18T04:45:24.533Z,14.10
2022-10-18T04:47:55.062Z,13.80
2022-10-18T04:50:25.732Z,13.90
2022-10-18T04:52:56.278Z,13.70
2022-10-18T04:55:26.788Z,14.00
2022-10-18T04:57:57.371Z,14.30
2022-10-18T05:00:27.946Z,14.40
2022-10-18T05:03:00.099Z,14.20
2022-10-18T05:05:49.764Z,14.10
2022-10-18T05:08:02.935Z,14.00
2022-10-18T05:10:33.477Z,14.10
2022-10-18T05:15:42.409Z,14.10
2022-10-18T05:23:42.402Z,14.10
2022-10-18T05:26:13.023Z,14.10
2022-10-18T05:28:43.740Z,14.00
2022-10-18T05:31:14.400Z,13.90
2022-10-18T05:33:45.158Z,13.90
2022-10-18T05:36:15.921Z,13.80
2022-10-18T05:38:50.641Z,13.80
2022-10-18T05:41:21.382Z,13.90
2022-10-18T05:43:52.059Z,13.90
2022-10-18T05:46:22.693Z,13.60
2022-10-18T05:48:53.710Z,13.70
2022-10-18T05:51:24.395Z,13.90
2022-10-18T05:53:55.143Z,13.70
2022-10-18T05:59:07.197Z,13.50
2022-10-18T06:01:37.868Z,13.40
2022-10-18T06:04:10.315Z,13.40
2022-10-18T06:06:41.570Z,13.50
2022-10-18T06:09:12.234Z,13.70
2022-10-18T06:11:42.851Z,13.80
2022-10-18T06:14:13.494Z,14.00
2022-10-18T06:16:44.196Z,14.10
2022-10-18T06:19:14.861Z,14.10
2022-10-18T06:21:47.699Z,14.30
2022-10-18T06:24:22.229Z,14.00
2022-10-18T06:26:53.567Z,13.90
2022-10-18T06:32:02.583Z,13.60
2022-10-18T06:34:33.671Z,13.80
2022-10-18T06:37:05.939Z,13.90
2022-10-18T06:39:36.946Z,13.70
2022-10-18T06:42:08.358Z,13.70
2022-10-18T06:44:39.098Z,13.80
2022-10-18T06:47:11.490Z,13.90
2022-10-18T06:49:42.026Z,13.80
2022-10-18T06:52:12.535Z,13.70
2022-10-18T06:54:45.317Z,13.90
2022-10-18T06:57:15.367Z,13.90
2022-10-18T06:59:46.081Z,14.10
2022-10-18T07:02:18.380Z,14.10
2022-10-18T07:04:48.956Z,14.00
2022-10-18T07:07:21.360Z,14.00
2022-10-18T07:09:51.933Z,14.10
2022-10-18T07:12:22.579Z,14.20
2022-10-18T07:14:53.263Z,14.30
2022-10-18T07:17:23.843Z,14.30
2022-10-18T07:19:54.565Z,14.20
2022-10-18T07:22:30.073Z,14.20
2022-10-18T07:24:58.504Z,14.40
2022-10-18T07:27:29.424Z,14.50
2022-10-18T07:30:00.229Z,14.70
2022-10-18T07:32:31.121Z,14.90
2022-10-18T07:35:02.697Z,15.20
2022-10-18T07:37:33.456Z,15.20
2022-10-18T07:40:04.128Z,15.30
2022-10-18T07:42:35.864Z,15.50
2022-10-18T07:45:07.189Z,15.60
2022-10-18T07:50:16.435Z,15.80
2022-10-18T07:52:47.019Z,15.80
2022-10-18T07:55:17.737Z,15.90
2022-10-18T07:57:48.320Z,16.00
2022-10-18T08:00:19.210Z,16.10
2022-10-18T08:02:49.752Z,16.20
2022-10-18T08:05:20.407Z,16.30
2022-10-18T08:07:50.984Z,16.30
2022-10-18T08:10:22.413Z,16.30
2022-10-18T08:12:53.325Z,16.50
2022-10-18T08:15:25.485Z,16.50
2022-10-18T08:17:56.059Z,16.60
2022-10-18T08:20:30.857Z,16.70
2022-10-18T08:23:00.840Z,16.80
2022-10-18T08:25:32.118Z,16.90
2022-10-18T08:28:02.688Z,16.90
2022-10-18T08:30:33.391Z,16.90
2022-10-18T08:33:04.000Z,17.00
2022-10-18T08:35:34.670Z,17.10
2022-10-18T08:38:05.236Z,17.20
2022-10-18T08:40:36.471Z,17.40
2022-10-18T08:43:10.393Z,17.30
2022-10-18T08:45:43.908Z,17.40
2022-10-18T08:48:22.715Z,17.40
2022-10-18T08:50:55.659Z,17.50
2022-10-18T08:53:30.598Z,17.60
2022-10-18T08:56:04.556Z,17.80
2022-10-18T08:58:35.921Z,18.00
2022-10-18T09:03:59.022Z,18.20
2022-10-18T09:06:33.013Z,18.40
2022-10-18T09:09:15.127Z,18.50
2022-10-18T09:11:51.894Z,18.50
2022-10-18T09:14:47.169Z,18.50
2022-10-18T09:17:22.771Z,18.30
2022-10-18T09:20:05.202Z,18.50
2022-10-18T09:22:42.764Z,18.50
2022-10-18T09:25:17.251Z,18.50
2022-10-18T09:27:53.445Z,18.70
2022-10-18T09:30:33.444Z,18.60
2022-10-18T09:33:10.429Z,18.60
2022-10-18T09:35:44.787Z,18.70
2022-10-18T09:38:18.395Z,18.80
2022-10-18T09:40:54.797Z,19.00
2022-10-18T09:43:27.710Z,19.30
2022-10-18T09:45:58.936Z,19.60
2022-10-18T09:48:32.768Z,19.70
2022-10-18T09:51:07.013Z,19.80
2022-10-18T09:53:40.585Z,19.90
2022-10-18T09:56:14.789Z,19.90
2022-10-18T09:58:47.706Z,19.80
2022-10-18T10:01:20.899Z,20.10
2022-10-18T10:03:52.307Z,20.40
2022-10-18T10:06:31.098Z,20.40
2022-10-18T10:09:04.727Z,20.50
2022-10-18T10:11:38.480Z,20.70
2022-10-18T10:14:19.755Z,20.60
2022-10-18T10:16:53.260Z,20.70
2022-10-18T10:19:28.248Z,20.60
2022-10-18T10:22:11.251Z,20.70
2022-10-18T10:24:49.947Z,20.90
2022-10-18T10:27:22.827Z,21.00
2022-10-18T10:29:58.186Z,20.90
2022-10-18T10:32:32.495Z,20.90
2022-10-18T10:35:03.226Z,20.90
2022-10-18T10:37:36.508Z,21.00
2022-10-18T10:40:21.222Z,21.30
2022-10-18T10:43:19.611Z,21.50
2022-10-18T10:45:40.729Z,21.70
2022-10-18T10:48:16.819Z,21.50
2022-10-18T10:50:55.540Z,21.60
2022-10-18T10:53:38.879Z,21.70
2022-10-18T10:56:22.129Z,21.60
2022-10-18T10:58:53.962Z,21.50
2022-10-18T11:01:33.674Z,21.80
2022-10-18T11:04:07.478Z,22.00
2022-10-18T11:06:49.674Z,21.90
2022-10-18T11:09:43.120Z,22.10
2022-10-18T11:12:34.970Z,22.50
2022-10-18T11:18:04.068Z,22.50
2022-10-18T11:20:38.799Z,22.50
2022-10-18T11:23:12.006Z,22.90
2022-10-18T11:25:58.345Z,23.10
2022-10-18T11:28:47.847Z,23.30
2022-10-18T11:31:21.636Z,23.90
2022-10-18T11:34:10.316Z,23.90
2022-10-18T11:36:49.332Z,24.00
2022-10-18T11:39:17.637Z,24.00
2022-10-18T11:41:51.815Z,24.30
2022-10-18T11:47:07.643Z,24.30
2022-10-18T11:49:49.849Z,24.40
2022-10-18T11:52:23.707Z,24.40
2022-10-18T11:55:18.298Z,24.50
2022-10-18T11:57:54.118Z,24.60
2022-10-18T12:00:39.796Z,24.40
2022-10-18T12:03:26.431Z,24.80
2022-10-18T12:05:59.453Z,24.40
2022-10-18T12:08:33.297Z,24.90
2022-10-18T12:11:07.083Z,24.80
2022-10-18T12:13:41.760Z,25.10
2022-10-18T12:16:13.449Z,25.10
2022-10-18T12:21:25.717Z,25.40
2022-10-18T12:23:59.306Z,25.30
2022-10-18T12:26:32.371Z,25.30
2022-10-18T12:29:10.080Z,25.30
2022-10-18T12:31:44.015Z,25.70
2022-10-18T12:34:27.475Z,25.50
2022-10-18T12:37:33.717Z,25.50
2022-10-18T12:40:14.304Z,25.50
2022-10-18T12:45:53.216Z,25.40
2022-10-18T12:48:34.613Z,25.20
2022-10-18T12:51:10.334Z,25.40
2022-10-18T12:53:42.407Z,25.30
2022-10-18T12:59:56.466Z,25.30
2022-10-18T13:02:32.437Z,24.70
2022-10-18T13:05:06.797Z,24.30
2022-10-18T13:07:43.311Z,24.60
2022-10-18T13:10:47.702Z,24.40
2022-10-18T13:16:42.477Z,24.70
2022-10-18T13:19:19.918Z,24.30
2022-10-18T13:21:54.888Z,24.30
2022-10-18T13:24:30.224Z,23.90
2022-10-18T13:27:35.593Z,24.20
2022-10-18T13:33:05.196Z,23.50
2022-10-18T13:35:55.407Z,23.70
2022-10-18T13:38:50.897Z,24.10
2022-10-18T13:44:19.403Z,23.90
2022-10-18T13:47:37.659Z,23.80
2022-10-18T13:50:28.032Z,23.60
2022-10-18T13:53:32.836Z,23.50
2022-10-18T13:56:28.344Z,23.90
2022-10-18T13:59:15.259Z,23.60
2022-10-18T14:01:57.669Z,23.40
2022-10-18T14:05:10.799Z,22.90
2022-10-18T14:07:32.112Z,22.90
2022-10-18T14:10:04.578Z,22.50
2022-10-18T14:12:38.785Z,22.30
2022-10-18T14:17:52.555Z,22.20
2022-10-18T14:20:29.975Z,22.40
2022-10-18T14:23:05.207Z,22.20
2022-10-18T14:25:38.221Z,22.20
2022-10-18T14:28:13.049Z,22.00
2022-10-18T14:30:58.068Z,21.80
2022-10-18T14:33:35.795Z,21.80
2022-10-18T14:36:14.480Z,21.70
2022-10-18T14:38:50.328Z,21.70
2022-10-18T14:41:23.840Z,21.80
2022-10-18T14:43:56.612Z,21.60
2022-10-18T14:46:30.158Z,21.80
2022-10-18T14:49:03.243Z,21.80
2022-10-18T14:51:36.705Z,21.60
2022-10-18T14:54:09.557Z,21.60
2022-10-18T14:56:42.687Z,21.70
2022-10-18T14:59:18.985Z,21.50
2022-10-18T15:01:58.842Z,21.30
2022-10-18T15:04:33.235Z,21.40
2022-10-18T15:07:05.931Z,21.30
2022-10-18T15:09:38.307Z,21.10
2022-10-18T15:12:10.111Z,20.90
2022-10-18T15:14:43.820Z,20.80
2022-10-18T15:17:19.243Z,20.80
2022-10-18T15:20:01.964Z,20.60
2022-10-18T15:22:33.684Z,20.70
2022-10-18T15:25:17.077Z,21.00
2022-10-18T15:27:50.420Z,20.70
2022-10-18T15:30:28.373Z,20.50
2022-10-18T15:33:00.737Z,20.50
2022-10-18T15:35:33.185Z,20.50
2022-10-18T15:38:06.298Z,20.40
2022-10-18T15:40:55.939Z,20.40
2022-10-18T15:43:38.903Z,20.40
2022-10-18T15:46:17.269Z,20.40
2022-10-18T15:48:48.057Z,20.50
2022-10-18T15:51:23.133Z,20.40
2022-10-18T15:53:57.418Z,20.40
2022-10-18T15:56:33.670Z,20.50
2022-10-18T15:59:06.251Z,20.40
2022-10-18T16:04:20.118Z,20.40
2022-10-18T16:06:50.639Z,20.30
2022-10-18T16:09:22.565Z,20.30
2022-10-18T16:11:57.080Z,20.30
2022-10-18T16:14:25.812Z,20.20
2022-10-18T16:17:02.301Z,20.20
2022-10-18T16:19:33.616Z,20.10
2022-10-18T16:22:06.921Z,19.90
2022-10-18T16:24:36.441Z,19.60
2022-10-18T16:27:07.212Z,19.50
2022-10-18T16:29:37.746Z,19.40
2022-10-18T16:32:08.872Z,19.40
2022-10-18T16:34:39.499Z,19.30
2022-10-18T16:37:10.801Z,19.20
2022-10-18T16:39:41.427Z,19.20
2022-10-18T16:42:12.098Z,19.00
2022-10-18T16:44:42.714Z,19.00
2022-10-18T16:47:13.848Z,18.90
2022-10-18T16:49:45.412Z,18.80
2022-10-18T16:52:16.007Z,18.80
2022-10-18T16:54:46.600Z,18.70
2022-10-18T16:57:17.119Z,18.60
2022-10-18T16:59:47.780Z,18.50
2022-10-18T17:02:18.314Z,18.40
2022-10-18T17:04:48.972Z,18.40
2022-10-18T17:07:23.348Z,18.40
2022-10-18T17:09:53.961Z,18.20
2022-10-18T17:12:24.595Z,18.10
2022-10-18T17:14:55.264Z,18.00
2022-10-18T17:17:25.797Z,18.00
2022-10-18T17:19:56.764Z,18.10
2022-10-18T17:22:27.550Z,18.10
2022-10-18T17:24:58.165Z,18.10
2022-10-18T17:27:28.766Z,18.10
2022-10-18T17:29:59.346Z,17.90
2022-10-18T17:32:29.859Z,17.80
2022-10-18T17:35:00.540Z,17.80
2022-10-18T17:37:31.351Z,17.90
2022-10-18T17:40:02.210Z,18.00
2022-10-18T17:42:32.740Z,18.00
2022-10-18T17:45:03.324Z,17.90
2022-10-18T17:47:34.150Z,17.70
2022-10-18T17:50:05.147Z,17.40
2022-10-18T17:52:35.777Z,17.20
2022-10-18T17:55:07.056Z,17.10
2022-10-18T17:57:38.092Z,17.10
2022-10-18T18:00:12.849Z,17.10
2022-10-18T18:02:43.636Z,17.10
2022-10-18T18:05:14.606Z,17.00
2022-10-18T18:07:46.230Z,16.90
2022-10-18T18:10:17.164Z,16.80
2022-10-18T18:12:48.117Z,16.80
2022-10-18T18:15:19.173Z,17.10
2022-10-18T18:17:57.953Z,17.10
2022-10-18T18:20:22.290Z,17.10
2022-10-18T18:22:53.416Z,17.30
2022-10-18T18:25:24.077Z,17.30
2022-10-18T18:27:55.219Z,17.20
2022-10-18T18:30:25.776Z,17.00
2022-10-18T18:32:56.329Z,16.80
2022-10-18T18:35:26.928Z,16.60
2022-10-18T18:37:57.507Z,16.40
2022-10-18T18:40:28.131Z,16.30
2022-10-18T18:43:12.072Z,16.20
2022-10-18T18:45:32.185Z,16.30
2022-10-18T18:48:02.846Z,16.40
2022-10-18T18:53:11.118Z,16.10
2022-10-18T18:55:43.057Z,16.10
2022-10-18T18:58:14.227Z,16.00
2022-10-18T19:00:45.241Z,16.00
2022-10-18T19:03:15.909Z,15.90
2022-10-18T19:05:46.722Z,15.80
2022-10-18T19:08:17.355Z,15.70
2022-10-18T19:10:49.725Z,15.70
2022-10-18T19:13:20.801Z,15.70
2022-10-18T19:15:51.332Z,15.80
2022-10-18T19:18:23.960Z,15.70
2022-10-18T19:20:54.117Z,15.70
2022-10-18T19:25:55.152Z,15.70
2022-10-18T19:28:25.751Z,15.80
2022-10-18T19:30:58.009Z,15.80
2022-10-18T19:33:41.346Z,16.00
2022-10-18T19:36:01.070Z,16.30
2022-10-18T19:38:31.598Z,16.20
2022-10-18T19:41:02.136Z,16.10
2022-10-18T19:43:32.723Z,16.00
2022-10-18T19:46:05.530Z,16.00
2022-10-18T19:48:36.132Z,16.00
2022-10-18T19:51:09.540Z,15.80
2022-10-18T19:53:41.686Z,16.00
2022-10-18T19:56:15.744Z,15.90
2022-10-18T19:58:46.339Z,15.90
2022-10-18T20:01:17.608Z,15.90
2022-10-18T20:03:50.434Z,15.80
2022-10-18T20:06:21.619Z,15.80
2022-10-18T20:08:53.335Z,15.60
2022-10-18T20:11:26.736Z,15.50
2022-10-18T20:13:57.689Z,15.40
2022-10-18T20:16:30.292Z,15.30
2022-10-18T20:19:02.427Z,15.40
2022-10-18T20:21:35.953Z,15.20
2022-10-18T20:24:07.935Z,15.20
2022-10-18T20:29:17.259Z,15.10
2022-10-18T20:31:47.834Z,15.10
2022-10-18T20:34:18.385Z,15.00
2022-10-18T20:36:49.081Z,15.00
2022-10-18T20:39:19.609Z,15.00
2022-10-18T20:41:50.971Z,14.80
2022-10-18T20:44:22.872Z,14.70
2022-10-18T20:46:53.516Z,14.50
2022-10-18T20:49:24.084Z,14.50
2022-10-18T20:51:54.960Z,14.60
2022-10-18T20:54:25.873Z,14.70
2022-10-18T20:56:56.457Z,14.70
2022-10-18T20:59:27.122Z,14.80
2022-10-18T21:01:57.657Z,14.70
2022-10-18T21:04:28.334Z,14.70
2022-10-18T21:07:00.857Z,14.70
2022-10-18T21:09:31.409Z,14.60
2022-10-18T21:12:02.052Z,14.60
2022-10-18T21:14:33.082Z,14.60
2022-10-18T21:17:03.627Z,14.50
2022-10-18T21:19:34.285Z,14.40
2022-10-18T21:22:04.957Z,14.50
2022-10-18T21:24:36.150Z,14.50
2022-10-18T21:27:06.807Z,14.60
2022-10-18T21:29:37.379Z,14.60
2022-10-18T21:32:08.317Z,14.60
2022-10-18T21:34:38.886Z,14.70
2022-10-18T21:37:09.463Z,14.70
2022-10-18T21:39:41.559Z,14.90
2022-10-18T21:42:12.718Z,15.00
2022-10-18T21:44:43.334Z,15.10
2022-10-18T21:47:15.403Z,15.30
2022-10-18T21:49:45.946Z,15.40
2022-10-18T21:52:16.780Z,15.30
2022-10-18T21:54:47.421Z,14.90
2022-10-18T21:57:18.062Z,14.70
2022-10-18T21:59:48.595Z,14.40
2022-10-18T22:02:19.156Z,14.20
2022-10-18T22:04:50.175Z,14.20
2022-10-18T22:07:20.692Z,14.30
2022-10-18T22:09:51.278Z,14.50
2022-10-18T22:12:21.842Z,14.40
2022-10-18T22:14:52.449Z,14.40
2022-10-18T22:17:23.776Z,14.30
2022-10-18T22:19:54.343Z,14.10
2022-10-18T22:22:24.878Z,14.10
2022-10-18T22:24:55.500Z,14.10
2022-10-18T22:27:26.201Z,14.10
2022-10-18T22:29:56.872Z,13.90
2022-10-18T22:32:27.577Z,13.80
2022-10-18T22:34:58.120Z,13.70
2022-10-18T22:37:28.659Z,13.60
2022-10-18T22:39:59.191Z,13.60
2022-10-18T22:42:29.719Z,13.60
2022-10-18T22:45:00.368Z,13.50
2022-10-18T22:47:31.156Z,13.50
2022-10-18T22:50:01.882Z,13.60
2022-10-18T22:52:32.825Z,13.70
2022-10-18T22:55:03.702Z,13.80
2022-10-18T22:57:34.355Z,13.80
2022-10-18T23:00:05.863Z,13.90
2022-10-18T23:02:36.551Z,13.90
2022-10-18T23:05:08.864Z,13.90
2022-10-18T23:07:39.401Z,13.80
2022-10-18T23:10:10.873Z,13.70
2022-10-18T23:12:41.566Z,13.70
2022-10-18T23:15:13.302Z,13.50
2022-10-18T23:17:43.828Z,13.30
2022-10-18T23:20:14.568Z,13.30
2022-10-18T23:22:45.124Z,13.20
2022-10-18T23:25:15.942Z,13.10
2022-10-18T23:27:46.616Z,13.10
2022-10-18T23:30:18.011Z,13.20
2022-10-18T23:32:48.745Z,13.40
2022-10-18T23:35:19.588Z,13.50
2022-10-18T23:40:27.821Z,13.60
2022-10-18T23:42:58.341Z,13.50
2022-10-18T23:45:28.882Z,13.40
2022-10-18T23:47:59.495Z,13.40
2022-10-18T23:50:30.073Z,13.20
2022-10-18T23:53:00.680Z,13.20
2022-10-18T23:55:31.252Z,13.20
2022-10-18T23:58:01.815Z,13.20
